sensor_id;sensor_type;location;lat;lon;timestamp;P1;durP1;ratioP1;P2;durP2;ratioP2
12921;SDS011;6528;48.086;16.282;2022-11-20T00:01:17;4.77;;;4.40;;
12921;SDS011;6528;48.086;16.282;2022-11-20T00:03:45;5.03;;;4.70;;
12921;SDS011;6528;48.086;16.282;2022-11-20T00:06:14;4.90;;;4.50;;
12921;SDS011;6528;48.086;16.282;2022-11-20T00:08:42;4.37;;;4.07;;
12921;SDS011;6528;48.086;16.282;2022-11-20T00:11:10;4.27;;;3.97;;
12921;SDS011;6528;48.086;16.282;2022-11-20T00:13:43;5.40;;;4.87;;
12921;SDS011;6528;48.086;16.282;2022-11-20T00:16:11;5.03;;;4.47;;
12921;SDS011;6528;48.086;16.282;2022-11-20T00:18:40;5.40;;;5.00;;
12921;SDS011;6528;48.086;16.282;2022-11-20T00:21:12;4.40;;;4.10;;
12921;SDS011;6528;48.086;16.282;2022-11-20T00:23:42;5.53;;;5.03;;
12921;SDS011;6528;48.086;16.282;2022-11-20T00:26:10;4.87;;;4.53;;
12921;SDS011;6528;48.086;16.282;2022-11-20T00:28:40;5.03;;;4.63;;
12921;SDS011;6528;48.086;16.282;2022-11-20T00:31:12;5.60;;;5.10;;
12921;SDS011;6528;48.086;16.282;2022-11-20T00:33:40;4.40;;;4.10;;
12921;SDS011;6528;48.086;16.282;2022-11-20T00:36:15;5.20;;;4.73;;
12921;SDS011;6528;48.086;16.282;2022-11-20T00:38:44;5.17;;;4.77;;
12921;SDS011;6528;48.086;16.282;2022-11-20T00:41:13;5.00;;;4.60;;
12921;SDS011;6528;48.086;16.282;2022-11-20T00:43:41;4.73;;;4.23;;
12921;SDS011;6528;48.086;16.282;2022-11-20T00:46:19;4.83;;;4.50;;
12921;SDS011;6528;48.086;16.282;2022-11-20T00:48:48;5.10;;;4.67;;
12921;SDS011;6528;48.086;16.282;2022-11-20T00:51:16;4.97;;;4.57;;
12921;SDS011;6528;48.086;16.282;2022-11-20T00:53:45;5.60;;;5.10;;
12921;SDS011;6528;48.086;16.282;2022-11-20T00:56:13;5.67;;;5.27;;
12921;SDS011;6528;48.086;16.282;2022-11-20T00:58:42;5.40;;;5.00;;
12921;SDS011;6528;48.086;16.282;2022-11-20T01:01:11;6.13;;;5.63;;
12921;SDS011;6528;48.086;16.282;2022-11-20T01:03:44;4.73;;;4.43;;
12921;SDS011;6528;48.086;16.282;2022-11-20T01:06:20;5.20;;;4.80;;
12921;SDS011;6528;48.086;16.282;2022-11-20T01:08:47;5.50;;;5.00;;
12921;SDS011;6528;48.086;16.282;2022-11-20T01:11:22;5.30;;;4.90;;
12921;SDS011;6528;48.086;16.282;2022-11-20T01:13:52;5.67;;;5.27;;
12921;SDS011;6528;48.086;16.282;2022-11-20T01:16:22;5.20;;;4.67;;
12921;SDS011;6528;48.086;16.282;2022-11-20T01:18:51;5.70;;;5.17;;
12921;SDS011;6528;48.086;16.282;2022-11-20T01:21:20;5.30;;;4.90;;
12921;SDS011;6528;48.086;16.282;2022-11-20T01:23:52;5.30;;;4.80;;
12921;SDS011;6528;48.086;16.282;2022-11-20T01:26:23;4.87;;;4.37;;
12921;SDS011;6528;48.086;16.282;2022-11-20T01:28:54;5.50;;;5.00;;
12921;SDS011;6528;48.086;16.282;2022-11-20T01:31:23;5.67;;;5.17;;
12921;SDS011;6528;48.086;16.282;2022-11-20T01:33:56;6.10;;;5.50;;
12921;SDS011;6528;48.086;16.282;2022-11-20T01:36:26;5.77;;;5.30;;
12921;SDS011;6528;48.086;16.282;2022-11-20T01:38:54;13.47;;;5.30;;
12921;SDS011;6528;48.086;16.282;2022-11-20T01:41:23;5.57;;;5.07;;
12921;SDS011;6528;48.086;16.282;2022-11-20T01:44:11;5.10;;;4.70;;
12921;SDS011;6528;48.086;16.282;2022-11-20T01:47:00;5.67;;;5.10;;
12921;SDS011;6528;48.086;16.282;2022-11-20T01:49:34;5.20;;;4.80;;
12921;SDS011;6528;48.086;16.282;2022-11-20T01:52:07;5.30;;;4.80;;
12921;SDS011;6528;48.086;16.282;2022-11-20T01:54:54;4.73;;;4.33;;
12921;SDS011;6528;48.086;16.282;2022-11-20T01:57:25;5.43;;;4.93;;
12921;SDS011;6528;48.086;16.282;2022-11-20T02:02:34;5.27;;;4.63;;
12921;SDS011;6528;48.086;16.282;2022-11-20T02:05:03;5.60;;;5.10;;
12921;SDS011;6528;48.086;16.282;2022-11-20T02:07:46;5.40;;;5.00;;
12921;SDS011;6528;48.086;16.282;2022-11-20T02:10:14;5.43;;;4.93;;
12921;SDS011;6528;48.086;16.282;2022-11-20T02:12:41;5.77;;;5.37;;
12921;SDS011;6528;48.086;16.282;2022-11-20T02:15:27;5.97;;;5.50;;
12921;SDS011;6528;48.086;16.282;2022-11-20T02:17:55;5.10;;;4.70;;
12921;SDS011;6528;48.086;16.282;2022-11-20T02:20:23;6.20;;;5.63;;
12921;SDS011;6528;48.086;16.282;2022-11-20T02:22:54;6.10;;;5.60;;
12921;SDS011;6528;48.086;16.282;2022-11-20T02:25:28;5.80;;;5.30;;
12921;SDS011;6528;48.086;16.282;2022-11-20T02:27:58;5.47;;;4.97;;
12921;SDS011;6528;48.086;16.282;2022-11-20T02:30:25;5.30;;;4.87;;
12921;SDS011;6528;48.086;16.282;2022-11-20T02:32:52;5.53;;;5.13;;
12921;SDS011;6528;48.086;16.282;2022-11-20T02:37:49;5.03;;;4.63;;
12921;SDS011;6528;48.086;16.282;2022-11-20T02:40:19;5.20;;;4.80;;
12921;SDS011;6528;48.086;16.282;2022-11-20T02:42:46;5.47;;;5.07;;
12921;SDS011;6528;48.086;16.282;2022-11-20T02:45:13;5.37;;;4.90;;
12921;SDS011;6528;48.086;16.282;2022-11-20T02:47:39;5.67;;;5.27;;
12921;SDS011;6528;48.086;16.282;2022-11-20T02:50:06;5.80;;;5.30;;
12921;SDS011;6528;48.086;16.282;2022-11-20T02:52:33;6.43;;;5.37;;
12921;SDS011;6528;48.086;16.282;2022-11-20T02:55:00;5.07;;;4.57;;
12921;SDS011;6528;48.086;16.282;2022-11-20T02:57:27;5.97;;;5.57;;
12921;SDS011;6528;48.086;16.282;2022-11-20T02:59:54;6.07;;;5.57;;
12921;SDS011;6528;48.086;16.282;2022-11-20T03:02:21;5.50;;;5.10;;
12921;SDS011;6528;48.086;16.282;2022-11-20T03:04:48;5.67;;;5.17;;
12921;SDS011;6528;48.086;16.282;2022-11-20T03:07:15;5.57;;;5.03;;
12921;SDS011;6528;48.086;16.282;2022-11-20T03:09:42;5.60;;;5.10;;
12921;SDS011;6528;48.086;16.282;2022-11-20T03:12:09;5.67;;;5.27;;
12921;SDS011;6528;48.086;16.282;2022-11-20T03:14:35;6.40;;;5.80;;
12921;SDS011;6528;48.086;16.282;2022-11-20T03:17:02;5.93;;;5.23;;
12921;SDS011;6528;48.086;16.282;2022-11-20T03:19:29;5.77;;;5.27;;
12921;SDS011;6528;48.086;16.282;2022-11-20T03:21:56;5.20;;;4.73;;
12921;SDS011;6528;48.086;16.282;2022-11-20T03:24:23;5.30;;;4.90;;
12921;SDS011;6528;48.086;16.282;2022-11-20T03:26:49;6.10;;;5.50;;
12921;SDS011;6528;48.086;16.282;2022-11-20T03:29:16;5.70;;;5.27;;
12921;SDS011;6528;48.086;16.282;2022-11-20T03:31:44;5.63;;;5.23;;
12921;SDS011;6528;48.086;16.282;2022-11-20T03:34:11;5.43;;;5.03;;
12921;SDS011;6528;48.086;16.282;2022-11-20T03:36:39;5.73;;;5.33;;
12921;SDS011;6528;48.086;16.282;2022-11-20T03:39:07;5.53;;;5.13;;
12921;SDS011;6528;48.086;16.282;2022-11-20T03:41:38;5.87;;;5.37;;
12921;SDS011;6528;48.086;16.282;2022-11-20T03:44:07;5.13;;;4.77;;
12921;SDS011;6528;48.086;16.282;2022-11-20T03:46:35;6.07;;;5.57;;
12921;SDS011;6528;48.086;16.282;2022-11-20T03:49:02;5.30;;;4.87;;
12921;SDS011;6528;48.086;16.282;2022-11-20T03:51:31;5.80;;;5.30;;
12921;SDS011;6528;48.086;16.282;2022-11-20T03:54:00;5.70;;;5.30;;
12921;SDS011;6528;48.086;16.282;2022-11-20T03:56:29;5.43;;;4.93;;
12921;SDS011;6528;48.086;16.282;2022-11-20T03:58:58;5.53;;;5.00;;
12921;SDS011;6528;48.086;16.282;2022-11-20T04:01:26;6.20;;;5.47;;
12921;SDS011;6528;48.086;16.282;2022-11-20T04:03:56;5.43;;;5.03;;
12921;SDS011;6528;48.086;16.282;2022-11-20T04:06:24;5.40;;;5.00;;
12921;SDS011;6528;48.086;16.282;2022-11-20T04:08:54;6.03;;;5.53;;
12921;SDS011;6528;48.086;16.282;2022-11-20T04:11:23;6.37;;;5.77;;
12921;SDS011;6528;48.086;16.282;2022-11-20T04:13:52;5.90;;;5.50;;
12921;SDS011;6528;48.086;16.282;2022-11-20T04:16:29;6.00;;;5.43;;
12921;SDS011;6528;48.086;16.282;2022-11-20T04:18:58;5.70;;;5.30;;
12921;SDS011;6528;48.086;16.282;2022-11-20T04:21:26;4.87;;;4.57;;
12921;SDS011;6528;48.086;16.282;2022-11-20T04:23:53;5.93;;;5.40;;
12921;SDS011;6528;48.086;16.282;2022-11-20T04:26:21;5.60;;;5.20;;
12921;SDS011;6528;48.086;16.282;2022-11-20T04:28:50;5.37;;;4.97;;
12921;SDS011;6528;48.086;16.282;2022-11-20T04:31:18;5.70;;;5.20;;
12921;SDS011;6528;48.086;16.282;2022-11-20T04:33:47;5.60;;;5.10;;
12921;SDS011;6528;48.086;16.282;2022-11-20T04:36:15;5.83;;;5.33;;
12921;SDS011;6528;48.086;16.282;2022-11-20T04:38:49;5.87;;;5.37;;
12921;SDS011;6528;48.086;16.282;2022-11-20T04:41:23;6.73;;;5.27;;
12921;SDS011;6528;48.086;16.282;2022-11-20T04:43:52;4.63;;;4.33;;
12921;SDS011;6528;48.086;16.282;2022-11-20T04:46:33;5.17;;;4.77;;
12921;SDS011;6528;48.086;16.282;2022-11-20T04:49:02;5.87;;;5.37;;
12921;SDS011;6528;48.086;16.282;2022-11-20T04:51:29;6.30;;;5.80;;
12921;SDS011;6528;48.086;16.282;2022-11-20T04:53:56;5.57;;;5.07;;
12921;SDS011;6528;48.086;16.282;2022-11-20T04:56:23;5.37;;;4.97;;
12921;SDS011;6528;48.086;16.282;2022-11-20T04:58:50;5.83;;;5.33;;
12921;SDS011;6528;48.086;16.282;2022-11-20T05:01:18;5.33;;;4.93;;
12921;SDS011;6528;48.086;16.282;2022-11-20T05:03:47;6.07;;;5.50;;
12921;SDS011;6528;48.086;16.282;2022-11-20T05:06:14;5.83;;;5.33;;
12921;SDS011;6528;48.086;16.282;2022-11-20T05:08:43;5.80;;;5.30;;
12921;SDS011;6528;48.086;16.282;2022-11-20T05:11:14;5.43;;;5.03;;
12921;SDS011;6528;48.086;16.282;2022-11-20T05:13:43;5.60;;;5.10;;
12921;SDS011;6528;48.086;16.282;2022-11-20T05:16:14;5.63;;;5.23;;
12921;SDS011;6528;48.086;16.282;2022-11-20T05:18:49;5.90;;;5.50;;
12921;SDS011;6528;48.086;16.282;2022-11-20T05:21:17;5.70;;;5.20;;
12921;SDS011;6528;48.086;16.282;2022-11-20T05:23:44;5.83;;;5.33;;
12921;SDS011;6528;48.086;16.282;2022-11-20T05:26:22;4.47;;;4.10;;
12921;SDS011;6528;48.086;16.282;2022-11-20T05:28:49;6.10;;;5.60;;
12921;SDS011;6528;48.086;16.282;2022-11-20T05:31:18;5.50;;;5.10;;
12921;SDS011;6528;48.086;16.282;2022-11-20T05:33:53;5.20;;;4.70;;
12921;SDS011;6528;48.086;16.282;2022-11-20T05:36:21;5.33;;;4.93;;
12921;SDS011;6528;48.086;16.282;2022-11-20T05:38:48;5.70;;;5.23;;
12921;SDS011;6528;48.086;16.282;2022-11-20T05:41:18;5.03;;;4.63;;
12921;SDS011;6528;48.086;16.282;2022-11-20T05:43:46;5.70;;;5.20;;
12921;SDS011;6528;48.086;16.282;2022-11-20T05:46:15;5.03;;;4.63;;
12921;SDS011;6528;48.086;16.282;2022-11-20T05:48:45;6.20;;;5.70;;
12921;SDS011;6528;48.086;16.282;2022-11-20T05:51:14;5.43;;;5.03;;
12921;SDS011;6528;48.086;16.282;2022-11-20T05:53:42;5.80;;;5.40;;
12921;SDS011;6528;48.086;16.282;2022-11-20T05:56:17;5.33;;;4.93;;
12921;SDS011;6528;48.086;16.282;2022-11-20T05:58:46;5.80;;;5.30;;
12921;SDS011;6528;48.086;16.282;2022-11-20T06:01:18;4.87;;;4.47;;
12921;SDS011;6528;48.086;16.282;2022-11-20T06:03:47;6.37;;;5.87;;
12921;SDS011;6528;48.086;16.282;2022-11-20T06:06:17;6.60;;;6.10;;
12921;SDS011;6528;48.086;16.282;2022-11-20T06:08:45;6.03;;;5.53;;
12921;SDS011;6528;48.086;16.282;2022-11-20T06:11:12;5.50;;;5.10;;
12921;SDS011;6528;48.086;16.282;2022-11-20T06:13:40;5.37;;;4.87;;
12921;SDS011;6528;48.086;16.282;2022-11-20T06:16:08;5.33;;;4.83;;
12921;SDS011;6528;48.086;16.282;2022-11-20T06:18:37;5.60;;;5.10;;
12921;SDS011;6528;48.086;16.282;2022-11-20T06:21:14;5.87;;;5.40;;
12921;SDS011;6528;48.086;16.282;2022-11-20T06:23:42;5.17;;;4.77;;
12921;SDS011;6528;48.086;16.282;2022-11-20T06:26:15;5.30;;;4.77;;
12921;SDS011;6528;48.086;16.282;2022-11-20T06:28:44;5.90;;;5.40;;
12921;SDS011;6528;48.086;16.282;2022-11-20T06:31:12;5.40;;;4.97;;
12921;SDS011;6528;48.086;16.282;2022-11-20T06:33:41;5.70;;;5.10;;
12921;SDS011;6528;48.086;16.282;2022-11-20T06:36:09;5.40;;;5.00;;
12921;SDS011;6528;48.086;16.282;2022-11-20T06:38:38;5.37;;;4.97;;
12921;SDS011;6528;48.086;16.282;2022-11-20T06:41:06;6.10;;;5.60;;
12921;SDS011;6528;48.086;16.282;2022-11-20T06:43:36;6.70;;;6.20;;
12921;SDS011;6528;48.086;16.282;2022-11-20T06:46:03;6.03;;;5.53;;
12921;SDS011;6528;48.086;16.282;2022-11-20T06:48:30;5.47;;;5.07;;
12921;SDS011;6528;48.086;16.282;2022-11-20T06:50:57;5.80;;;5.40;;
12921;SDS011;6528;48.086;16.282;2022-11-20T06:53:24;6.00;;;5.27;;
12921;SDS011;6528;48.086;16.282;2022-11-20T06:55:51;6.13;;;5.67;;
12921;SDS011;6528;48.086;16.282;2022-11-20T06:58:18;6.03;;;5.60;;
12921;SDS011;6528;48.086;16.282;2022-11-20T07:00:45;5.50;;;5.00;;
12921;SDS011;6528;48.086;16.282;2022-11-20T07:03:12;5.87;;;5.37;;
12921;SDS011;6528;48.086;16.282;2022-11-20T07:05:39;6.17;;;5.67;;
12921;SDS011;6528;48.086;16.282;2022-11-20T07:08:06;5.70;;;5.20;;
12921;SDS011;6528;48.086;16.282;2022-11-20T07:10:33;6.50;;;5.90;;
12921;SDS011;6528;48.086;16.282;2022-11-20T07:13:00;5.93;;;5.50;;
12921;SDS011;6528;48.086;16.282;2022-11-20T07:15:27;5.87;;;5.37;;
12921;SDS011;6528;48.086;16.282;2022-11-20T07:17:54;5.70;;;5.30;;
12921;SDS011;6528;48.086;16.282;2022-11-20T07:20:21;6.03;;;5.53;;
12921;SDS011;6528;48.086;16.282;2022-11-20T07:22:52;5.20;;;4.80;;
12921;SDS011;6528;48.086;16.282;2022-11-20T07:25:21;5.17;;;4.77;;
12921;SDS011;6528;48.086;16.282;2022-11-20T07:27:51;5.60;;;5.20;;
12921;SDS011;6528;48.086;16.282;2022-11-20T07:30:18;6.47;;;5.87;;
12921;SDS011;6528;48.086;16.282;2022-11-20T07:32:46;6.40;;;5.90;;
12921;SDS011;6528;48.086;16.282;2022-11-20T07:35:16;6.90;;;6.23;;
12921;SDS011;6528;48.086;16.282;2022-11-20T07:37:43;6.13;;;5.63;;
12921;SDS011;6528;48.086;16.282;2022-11-20T07:40:12;6.90;;;6.37;;
12921;SDS011;6528;48.086;16.282;2022-11-20T07:42:46;6.70;;;6.10;;
12921;SDS011;6528;48.086;16.282;2022-11-20T07:45:21;9.10;;;8.20;;
12921;SDS011;6528;48.086;16.282;2022-11-20T07:47:49;8.53;;;7.90;;
12921;SDS011;6528;48.086;16.282;2022-11-20T07:50:16;9.37;;;8.50;;
12921;SDS011;6528;48.086;16.282;2022-11-20T07:52:44;8.50;;;7.70;;
12921;SDS011;6528;48.086;16.282;2022-11-20T07:55:11;8.00;;;7.27;;
12921;SDS011;6528;48.086;16.282;2022-11-20T07:57:39;8.87;;;8.07;;
12921;SDS011;6528;48.086;16.282;2022-11-20T08:00:07;7.40;;;6.80;;
12921;SDS011;6528;48.086;16.282;2022-11-20T08:02:39;7.60;;;7.00;;
12921;SDS011;6528;48.086;16.282;2022-11-20T08:05:10;8.57;;;7.73;;
12921;SDS011;6528;48.086;16.282;2022-11-20T08:07:37;7.43;;;6.60;;
12921;SDS011;6528;48.086;16.282;2022-11-20T08:10:06;8.70;;;7.90;;
12921;SDS011;6528;48.086;16.282;2022-11-20T08:12:34;8.07;;;7.37;;
12921;SDS011;6528;48.086;16.282;2022-11-20T08:15:20;7.47;;;6.87;;
12921;SDS011;6528;48.086;16.282;2022-11-20T08:17:47;7.10;;;6.50;;
12921;SDS011;6528;48.086;16.282;2022-11-20T08:20:34;7.50;;;6.90;;
12921;SDS011;6528;48.086;16.282;2022-11-20T08:23:02;7.60;;;6.90;;
12921;SDS011;6528;48.086;16.282;2022-11-20T08:29:22;8.40;;;7.70;;
12921;SDS011;6528;48.086;16.282;2022-11-20T08:35:40;8.30;;;7.60;;
12921;SDS011;6528;48.086;16.282;2022-11-20T08:38:08;7.93;;;7.33;;
12921;SDS011;6528;48.086;16.282;2022-11-20T08:40:35;8.73;;;8.00;;
12921;SDS011;6528;48.086;16.282;2022-11-20T08:43:02;7.63;;;6.93;;
12921;SDS011;6528;48.086;16.282;2022-11-20T08:45:30;7.70;;;7.00;;
12921;SDS011;6528;48.086;16.282;2022-11-20T08:48:00;8.07;;;7.30;;
12921;SDS011;6528;48.086;16.282;2022-11-20T08:50:27;7.13;;;6.53;;
12921;SDS011;6528;48.086;16.282;2022-11-20T08:53:02;8.33;;;7.63;;
12921;SDS011;6528;48.086;16.282;2022-11-20T08:55:31;7.97;;;7.10;;
12921;SDS011;6528;48.086;16.282;2022-11-20T08:58:02;7.70;;;7.10;;
12921;SDS011;6528;48.086;16.282;2022-11-20T09:00:30;7.80;;;7.20;;
12921;SDS011;6528;48.086;16.282;2022-11-20T09:02:58;7.43;;;6.83;;
12921;SDS011;6528;48.086;16.282;2022-11-20T09:05:27;7.47;;;6.80;;
12921;SDS011;6528;48.086;16.282;2022-11-20T09:07:57;6.67;;;6.17;;
12921;SDS011;6528;48.086;16.282;2022-11-20T09:10:24;7.27;;;6.67;;
12921;SDS011;6528;48.086;16.282;2022-11-20T09:12:52;7.13;;;6.53;;
12921;SDS011;6528;48.086;16.282;2022-11-20T09:15:21;7.60;;;6.90;;
12921;SDS011;6528;48.086;16.282;2022-11-20T09:20:24;7.17;;;6.57;;
12921;SDS011;6528;48.086;16.282;2022-11-20T09:22:52;6.87;;;6.37;;
12921;SDS011;6528;48.086;16.282;2022-11-20T09:25:19;7.20;;;6.60;;
12921;SDS011;6528;48.086;16.282;2022-11-20T09:27:46;8.20;;;7.50;;
12921;SDS011;6528;48.086;16.282;2022-11-20T09:30:13;7.90;;;7.17;;
12921;SDS011;6528;48.086;16.282;2022-11-20T09:32:41;7.30;;;6.70;;
12921;SDS011;6528;48.086;16.282;2022-11-20T09:35:08;7.57;;;6.87;;
12921;SDS011;6528;48.086;16.282;2022-11-20T09:37:37;7.63;;;6.93;;
12921;SDS011;6528;48.086;16.282;2022-11-20T09:40:04;7.80;;;7.20;;
12921;SDS011;6528;48.086;16.282;2022-11-20T09:51:18;7.70;;;7.10;;
12921;SDS011;6528;48.086;16.282;2022-11-20T09:54:02;6.87;;;6.30;;
12921;SDS011;6528;48.086;16.282;2022-11-20T09:56:37;7.50;;;6.80;;
12921;SDS011;6528;48.086;16.282;2022-11-20T09:59:12;7.60;;;7.00;;
12921;SDS011;6528;48.086;16.282;2022-11-20T10:02:02;8.00;;;7.30;;
12921;SDS011;6528;48.086;16.282;2022-11-20T10:04:44;7.20;;;6.60;;
12921;SDS011;6528;48.086;16.282;2022-11-20T10:10:33;6.77;;;6.17;;
12921;SDS011;6528;48.086;16.282;2022-11-20T10:18:49;7.23;;;6.63;;
12921;SDS011;6528;48.086;16.282;2022-11-20T10:27:29;25.97;;;23.37;;
12921;SDS011;6528;48.086;16.282;2022-11-20T10:29:55;27.80;;;24.90;;
12921;SDS011;6528;48.086;16.282;2022-11-20T10:32:31;27.10;;;24.30;;
12921;SDS011;6528;48.086;16.282;2022-11-20T10:37:35;26.60;;;23.80;;
12921;SDS011;6528;48.086;16.282;2022-11-20T10:42:43;21.90;;;19.63;;
12921;SDS011;6528;48.086;16.282;2022-11-20T10:45:15;19.53;;;17.40;;
12921;SDS011;6528;48.086;16.282;2022-11-20T10:47:46;16.70;;;14.97;;
12921;SDS011;6528;48.086;16.282;2022-11-20T10:50:14;17.70;;;15.93;;
12921;SDS011;6528;48.086;16.282;2022-11-20T11:00:12;17.13;;;12.97;;
12921;SDS011;6528;48.086;16.282;2022-11-20T11:02:44;13.57;;;12.23;;
12921;SDS011;6528;48.086;16.282;2022-11-20T11:08:05;12.57;;;11.37;;
12921;SDS011;6528;48.086;16.282;2022-11-20T11:15:52;12.23;;;10.93;;
12921;SDS011;6528;48.086;16.282;2022-11-20T11:18:27;13.03;;;11.60;;
12921;SDS011;6528;48.086;16.282;2022-11-20T11:20:56;12.03;;;10.97;;
12921;SDS011;6528;48.086;16.282;2022-11-20T11:23:38;11.07;;;10.07;;
12921;SDS011;6528;48.086;16.282;2022-11-20T11:26:07;10.80;;;9.90;;
12921;SDS011;6528;48.086;16.282;2022-11-20T11:28:56;10.73;;;9.83;;
12921;SDS011;6528;48.086;16.282;2022-11-20T11:31:25;11.13;;;10.03;;
12921;SDS011;6528;48.086;16.282;2022-11-20T11:34:04;10.23;;;9.30;;
12921;SDS011;6528;48.086;16.282;2022-11-20T11:36:38;10.57;;;9.57;;
12921;SDS011;6528;48.086;16.282;2022-11-20T11:39:08;10.03;;;9.13;;
12921;SDS011;6528;48.086;16.282;2022-11-20T11:41:39;10.60;;;9.70;;
12921;SDS011;6528;48.086;16.282;2022-11-20T11:44:43;10.23;;;9.30;;
12921;SDS011;6528;48.086;16.282;2022-11-20T11:47:26;11.03;;;10.00;;
12921;SDS011;6528;48.086;16.282;2022-11-20T12:00:51;10.53;;;9.63;;
12921;SDS011;6528;48.086;16.282;2022-11-20T12:03:34;9.83;;;9.03;;
12921;SDS011;6528;48.086;16.282;2022-11-20T12:06:07;10.37;;;9.47;;
12921;SDS011;6528;48.086;16.282;2022-11-20T12:09:14;9.20;;;8.40;;
12921;SDS011;6528;48.086;16.282;2022-11-20T12:11:40;9.63;;;8.83;;
12921;SDS011;6528;48.086;16.282;2022-11-20T12:17:03;8.50;;;7.80;;
12921;SDS011;6528;48.086;16.282;2022-11-20T12:19:30;8.67;;;7.97;;
12921;SDS011;6528;48.086;16.282;2022-11-20T12:22:02;8.03;;;7.37;;
12921;SDS011;6528;48.086;16.282;2022-11-20T12:27:38;9.07;;;8.27;;
12921;SDS011;6528;48.086;16.282;2022-11-20T12:30:22;8.43;;;7.70;;
12921;SDS011;6528;48.086;16.282;2022-11-20T12:35:51;9.10;;;8.40;;
12921;SDS011;6528;48.086;16.282;2022-11-20T12:47:24;9.43;;;8.60;;
12921;SDS011;6528;48.086;16.282;2022-11-20T12:53:36;9.00;;;8.10;;
12921;SDS011;6528;48.086;16.282;2022-11-20T13:02:28;8.83;;;7.93;;
12921;SDS011;6528;48.086;16.282;2022-11-20T13:05:24;9.30;;;8.50;;
12921;SDS011;6528;48.086;16.282;2022-11-20T13:07:53;10.17;;;8.50;;
12921;SDS011;6528;48.086;16.282;2022-11-20T13:12:56;8.57;;;7.77;;
12921;SDS011;6528;48.086;16.282;2022-11-20T13:18:29;9.73;;;8.87;;
12921;SDS011;6528;48.086;16.282;2022-11-20T13:21:12;8.53;;;7.83;;
12921;SDS011;6528;48.086;16.282;2022-11-20T13:23:44;8.40;;;7.70;;
12921;SDS011;6528;48.086;16.282;2022-11-20T13:26:21;8.33;;;7.53;;
12921;SDS011;6528;48.086;16.282;2022-11-20T13:29:08;8.77;;;7.87;;
12921;SDS011;6528;48.086;16.282;2022-11-20T13:31:43;8.17;;;7.40;;
12921;SDS011;6528;48.086;16.282;2022-11-20T13:34:34;8.20;;;7.50;;
12921;SDS011;6528;48.086;16.282;2022-11-20T13:36:59;8.70;;;7.90;;
12921;SDS011;6528;48.086;16.282;2022-11-20T13:39:33;8.33;;;7.63;;
12921;SDS011;6528;48.086;16.282;2022-11-20T13:44:38;8.23;;;7.63;;
12921;SDS011;6528;48.086;16.282;2022-11-20T13:47:22;8.27;;;7.47;;
12921;SDS011;6528;48.086;16.282;2022-11-20T13:49:53;8.73;;;7.90;;
12921;SDS011;6528;48.086;16.282;2022-11-20T14:00:51;7.57;;;6.97;;
12921;SDS011;6528;48.086;16.282;2022-11-20T14:03:41;7.70;;;6.90;;
12921;SDS011;6528;48.086;16.282;2022-11-20T14:06:29;8.10;;;7.30;;
12921;SDS011;6528;48.086;16.282;2022-11-20T14:08:58;7.73;;;6.93;;
12921;SDS011;6528;48.086;16.282;2022-11-20T14:11:29;7.70;;;7.00;;
12921;SDS011;6528;48.086;16.282;2022-11-20T14:14:04;6.93;;;6.30;;
12921;SDS011;6528;48.086;16.282;2022-11-20T14:16:42;8.67;;;7.90;;
12921;SDS011;6528;48.086;16.282;2022-11-20T14:21:47;7.33;;;6.73;;
12921;SDS011;6528;48.086;16.282;2022-11-20T14:24:34;8.37;;;7.57;;
12921;SDS011;6528;48.086;16.282;2022-11-20T14:27:01;8.20;;;7.50;;
12921;SDS011;6528;48.086;16.282;2022-11-20T14:29:29;7.10;;;6.60;;
12921;SDS011;6528;48.086;16.282;2022-11-20T14:32:00;7.43;;;6.67;;
12921;SDS011;6528;48.086;16.282;2022-11-20T14:34:30;7.70;;;7.00;;
12921;SDS011;6528;48.086;16.282;2022-11-20T14:36:59;7.73;;;7.03;;
12921;SDS011;6528;48.086;16.282;2022-11-20T14:39:37;7.37;;;6.70;;
12921;SDS011;6528;48.086;16.282;2022-11-20T14:42:18;7.47;;;6.77;;
12921;SDS011;6528;48.086;16.282;2022-11-20T14:44:47;7.30;;;6.60;;
12921;SDS011;6528;48.086;16.282;2022-11-20T14:47:19;8.20;;;7.50;;
12921;SDS011;6528;48.086;16.282;2022-11-20T14:49:49;7.83;;;7.13;;
12921;SDS011;6528;48.086;16.282;2022-11-20T14:52:19;7.93;;;7.13;;
12921;SDS011;6528;48.086;16.282;2022-11-20T14:54:54;7.80;;;7.10;;
12921;SDS011;6528;48.086;16.282;2022-11-20T14:57:26;7.97;;;7.23;;
12921;SDS011;6528;48.086;16.282;2022-11-20T15:00:05;8.60;;;7.80;;
12921;SDS011;6528;48.086;16.282;2022-11-20T15:02:40;7.43;;;6.87;;
12921;SDS011;6528;48.086;16.282;2022-11-20T15:05:08;7.50;;;6.90;;
12921;SDS011;6528;48.086;16.282;2022-11-20T15:07:37;6.93;;;6.30;;
12921;SDS011;6528;48.086;16.282;2022-11-20T15:10:10;7.47;;;6.80;;
12921;SDS011;6528;48.086;16.282;2022-11-20T15:12:46;6.83;;;6.27;;
12921;SDS011;6528;48.086;16.282;2022-11-20T15:15:18;6.87;;;6.33;;
12921;SDS011;6528;48.086;16.282;2022-11-20T15:17:51;6.27;;;5.77;;
12921;SDS011;6528;48.086;16.282;2022-11-20T15:20:18;6.43;;;5.83;;
12921;SDS011;6528;48.086;16.282;2022-11-20T15:22:46;8.33;;;6.67;;
12921;SDS011;6528;48.086;16.282;2022-11-20T15:25:13;7.57;;;6.87;;
12921;SDS011;6528;48.086;16.282;2022-11-20T15:27:41;7.30;;;6.27;;
12921;SDS011;6528;48.086;16.282;2022-11-20T15:30:16;7.33;;;6.73;;
12921;SDS011;6528;48.086;16.282;2022-11-20T15:32:45;6.87;;;6.27;;
12921;SDS011;6528;48.086;16.282;2022-11-20T15:35:13;7.53;;;6.83;;
12921;SDS011;6528;48.086;16.282;2022-11-20T15:37:41;6.83;;;6.20;;
12921;SDS011;6528;48.086;16.282;2022-11-20T15:40:08;7.10;;;6.50;;
12921;SDS011;6528;48.086;16.282;2022-11-20T15:42:36;9.10;;;8.20;;
12921;SDS011;6528;48.086;16.282;2022-11-20T15:45:03;8.50;;;7.70;;
12921;SDS011;6528;48.086;16.282;2022-11-20T15:47:31;7.37;;;6.77;;
12921;SDS011;6528;48.086;16.282;2022-11-20T15:50:01;8.30;;;7.60;;
12921;SDS011;6528;48.086;16.282;2022-11-20T15:52:28;6.93;;;6.33;;
12921;SDS011;6528;48.086;16.282;2022-11-20T15:55:09;7.90;;;7.30;;
12921;SDS011;6528;48.086;16.282;2022-11-20T15:57:36;7.10;;;6.40;;
12921;SDS011;6528;48.086;16.282;2022-11-20T16:00:03;7.40;;;6.80;;
12921;SDS011;6528;48.086;16.282;2022-11-20T16:02:30;7.23;;;6.53;;
12921;SDS011;6528;48.086;16.282;2022-11-20T16:04:57;7.30;;;6.70;;
12921;SDS011;6528;48.086;16.282;2022-11-20T16:07:24;8.10;;;7.33;;
12921;SDS011;6528;48.086;16.282;2022-11-20T16:09:51;6.60;;;6.00;;
12921;SDS011;6528;48.086;16.282;2022-11-20T16:12:18;7.57;;;6.90;;
12921;SDS011;6528;48.086;16.282;2022-11-20T16:15:04;8.20;;;7.40;;
12921;SDS011;6528;48.086;16.282;2022-11-20T16:17:50;8.73;;;6.67;;
12921;SDS011;6528;48.086;16.282;2022-11-20T16:20:17;7.13;;;6.53;;
12921;SDS011;6528;48.086;16.282;2022-11-20T16:22:44;7.27;;;6.67;;
12921;SDS011;6528;48.086;16.282;2022-11-20T16:25:11;7.40;;;6.80;;
12921;SDS011;6528;48.086;16.282;2022-11-20T16:27:38;6.70;;;6.03;;
12921;SDS011;6528;48.086;16.282;2022-11-20T16:30:05;7.03;;;6.43;;
12921;SDS011;6528;48.086;16.282;2022-11-20T16:32:32;6.53;;;6.03;;
12921;SDS011;6528;48.086;16.282;2022-11-20T16:34:59;6.57;;;5.97;;
12921;SDS011;6528;48.086;16.282;2022-11-20T16:37:26;6.73;;;6.23;;
12921;SDS011;6528;48.086;16.282;2022-11-20T16:39:53;7.80;;;6.10;;
12921;SDS011;6528;48.086;16.282;2022-11-20T16:42:22;6.83;;;6.23;;
12921;SDS011;6528;48.086;16.282;2022-11-20T16:44:49;7.03;;;6.43;;
12921;SDS011;6528;48.086;16.282;2022-11-20T16:47:16;7.47;;;6.77;;
12921;SDS011;6528;48.086;16.282;2022-11-20T16:49:43;7.33;;;6.73;;
12921;SDS011;6528;48.086;16.282;2022-11-20T16:52:10;6.33;;;5.73;;
12921;SDS011;6528;48.086;16.282;2022-11-20T16:54:36;8.00;;;6.90;;
12921;SDS011;6528;48.086;16.282;2022-11-20T16:57:03;7.53;;;6.87;;
12921;SDS011;6528;48.086;16.282;2022-11-20T16:59:30;6.90;;;6.30;;
12921;SDS011;6528;48.086;16.282;2022-11-20T17:01:57;7.23;;;6.63;;
12921;SDS011;6528;48.086;16.282;2022-11-20T17:04:25;6.97;;;6.37;;